PWSweather.com
Personal Weather Stations
Station Observations
OBERT
Bodensee Hinterland, OberteuringenDE

Bodensee HinterlandOberteuringenDE

Lat: 47.714675, Lon: 9.44447

Elevation: 1427

Station Type: Wunder Weather Station

High Low Average
Temperature 44.6°F7.0°C 32.9°F0.5°C 39.4°F4.1°C
Dew Point 39.9°F4.4°C 32.9°F0.5°C 37.9°F3.3°C
Winds 13.3 mph 21.4 kmh Calm Calm 4.0 mph N6.4 kmh N
Wind Gusts 23.1 mph37.2 kmh -- 8.0 mph12.9 kmh
Humidity 100% 78% 94%
Pressure 29.98 in1015.2 mb 29.68 in1005.1 mb -
Precipitation 0.00 in0.0 mm - -
Hour Temp Dew Point Humidity Winds Wind Gusts Pressure Precip Precip Rate Daily Precip Total
12:08 AM 38.3°F3.5°C 38.3°F3.5°C 100% 4.1 mph N6.6 kmh N 8.7 mph14.0 kmh 29.68 in1005.1 mb 0.00 in0.0 mm 0.00 in0.0 mm 0.00 in0.0 mm
12:38 AM 38.4°F3.6°C 38.4°F3.6°C 100% 1.4 mph 2.3 kmh 5.6 mph9.0 kmh 29.68 in1005.1 mb 0.00 in0.0 mm 0.00 in0.0 mm 0.00 in0.0 mm
01:08 AM 38.3°F3.5°C 38.3°F3.5°C 100% Calm Calm 4.0 mph6.4 kmh 29.68 in1005.1 mb 0.00 in0.0 mm 0.00 in0.0 mm 0.00 in0.0 mm
01:38 AM 38.3°F3.5°C 38.3°F3.5°C 100% Calm Calm 2.5 mph4.0 kmh 29.68 in1005.1 mb 0.00 in0.0 mm 0.00 in0.0 mm 0.00 in0.0 mm
02:08 AM 38.3°F3.5°C 38.3°F3.5°C 100% Calm Calm 2.5 mph4.0 kmh 29.68 in1005.1 mb 0.00 in0.0 mm 0.00 in0.0 mm 0.00 in0.0 mm
02:38 AM 38.1°F3.4°C 38.1°F3.4°C 100% Calm Calm -- 29.68 in1005.1 mb 0.00 in0.0 mm 0.00 in0.0 mm 0.00 in0.0 mm
03:08 AM 38.1°F3.4°C 38.1°F3.4°C 100% Calm Calm -- 29.68 in1005.1 mb 0.00 in0.0 mm 0.00 in0.0 mm 0.00 in0.0 mm
03:38 AM 38.3°F3.5°C 38.3°F3.5°C 100% Calm Calm -- 29.69 in1005.4 mb 0.00 in0.0 mm 0.00 in0.0 mm 0.00 in0.0 mm
04:08 AM 39.2°F4.0°C 39.2°F4.0°C 100% 3.2 mph 5.1 kmh 11.8 mph19.0 kmh 29.70 in1005.8 mb 0.00 in0.0 mm 0.00 in0.0 mm 0.00 in0.0 mm
04:38 AM 39.0°F3.9°C 39.0°F3.9°C 100% 1.0 mph 1.6 kmh 5.6 mph9.0 kmh 29.70 in1005.8 mb 0.00 in0.0 mm 0.00 in0.0 mm 0.00 in0.0 mm
05:08 AM 39.0°F3.9°C 39.0°F3.9°C 100% 2.3 mph 3.7 kmh 5.0 mph8.0 kmh 29.70 in1005.8 mb 0.00 in0.0 mm 0.00 in0.0 mm 0.00 in0.0 mm
05:38 AM 39.2°F4.0°C 39.2°F4.0°C 100% 2.5 mph 4.0 kmh 4.3 mph6.9 kmh 29.71 in1006.1 mb 0.00 in0.0 mm 0.00 in0.0 mm 0.00 in0.0 mm
06:08 AM 39.5°F4.2°C 39.5°F4.2°C 100% 3.8 mph N6.1 kmh N 8.4 mph13.5 kmh 29.72 in1006.4 mb 0.00 in0.0 mm 0.00 in0.0 mm 0.00 in0.0 mm
06:38 AM 39.7°F4.3°C 39.5°F4.2°C 99% 2.7 mph 4.3 kmh 6.5 mph10.5 kmh 29.73 in1006.8 mb 0.00 in0.0 mm 0.00 in0.0 mm 0.00 in0.0 mm
07:08 AM 39.7°F4.3°C 39.7°F4.3°C 100% 5.3 mph N8.5 kmh N 8.4 mph13.5 kmh 29.75 in1007.5 mb 0.00 in0.0 mm 0.00 in0.0 mm 0.00 in0.0 mm
07:38 AM 39.7°F4.3°C 39.7°F4.3°C 100% 3.8 mph N6.1 kmh N 10.9 mph17.5 kmh 29.76 in1007.8 mb 0.00 in0.0 mm 0.00 in0.0 mm 0.00 in0.0 mm
08:08 AM 39.9°F4.4°C 39.4°F4.1°C 98% 2.9 mph N4.7 kmh N 13.1 mph21.1 kmh 29.77 in1008.1 mb 0.00 in0.0 mm 0.00 in0.0 mm 0.00 in0.0 mm
08:38 AM 40.4°F4.7°C 39.2°F4.0°C 95% 3.8 mph N6.1 kmh N 9.6 mph15.4 kmh 29.78 in1008.5 mb 0.00 in0.0 mm 0.00 in0.0 mm 0.00 in0.0 mm
09:08 AM 41.0°F5.0°C 39.8°F4.3°C 95% 3.2 mph N5.1 kmh N 6.2 mph10.0 kmh 29.79 in1008.8 mb 0.00 in0.0 mm 0.00 in0.0 mm 0.00 in0.0 mm
09:38 AM 42.0°F5.6°C 39.9°F4.4°C 91% 7.0 mph 11.3 kmh 13.1 mph21.1 kmh 29.79 in1008.8 mb 0.00 in0.0 mm 0.00 in0.0 mm 0.00 in0.0 mm
10:08 AM 42.8°F6.0°C 39.5°F4.2°C 88% 10.4 mph N16.7 kmh N 15.0 mph24.1 kmh 29.80 in1009.1 mb 0.00 in0.0 mm 0.00 in0.0 mm 0.00 in0.0 mm
10:38 AM 43.8°F6.6°C 39.8°F4.3°C 85% 9.2 mph 14.8 kmh 20.6 mph33.2 kmh 29.82 in1009.8 mb 0.00 in0.0 mm 0.00 in0.0 mm 0.00 in0.0 mm
11:08 AM 44.6°F7.0°C 39.5°F4.2°C 82% 11.8 mph 19.0 kmh 20.9 mph33.6 kmh 29.81 in1009.5 mb 0.00 in0.0 mm 0.00 in0.0 mm 0.00 in0.0 mm
11:38 AM 44.0°F6.7°C 38.8°F3.8°C 81% 13.3 mph 21.4 kmh 23.1 mph37.2 kmh 29.80 in1009.1 mb 0.00 in0.0 mm 0.00 in0.0 mm 0.00 in0.0 mm
12:08 PM 43.1°F6.2°C 38.6°F3.7°C 84% 9.0 mph N14.5 kmh N 16.8 mph27.0 kmh 29.81 in1009.5 mb 0.00 in0.0 mm 0.00 in0.0 mm 0.00 in0.0 mm
12:38 PM 43.5°F6.4°C 38.6°F3.7°C 82% 11.0 mph N17.7 kmh N 19.3 mph31.1 kmh 29.82 in1009.8 mb 0.00 in0.0 mm 0.00 in0.0 mm 0.00 in0.0 mm
12:50 PM 43.8°F6.6°C 39.2°F4.0°C 83% 9.4 mph 15.1 kmh 15.3 mph24.6 kmh 29.82 in1009.8 mb 0.00 in0.0 mm 0.00 in0.0 mm 0.00 in0.0 mm
01:20 PM 44.0°F6.7°C 38.9°F3.8°C 82% 8.7 mph N14.0 kmh N 17.1 mph27.5 kmh 29.82 in1009.8 mb 0.00 in0.0 mm 0.00 in0.0 mm 0.00 in0.0 mm
01:50 PM 44.0°F6.7°C 38.9°F3.8°C 82% 13.3 mph N21.4 kmh N 18.1 mph29.1 kmh 29.82 in1009.8 mb 0.00 in0.0 mm 0.00 in0.0 mm 0.00 in0.0 mm
02:20 PM 44.6°F7.0°C 38.9°F3.8°C 80% 9.4 mph 15.1 kmh 18.7 mph30.1 kmh 29.84 in1010.5 mb 0.00 in0.0 mm 0.00 in0.0 mm 0.00 in0.0 mm
02:50 PM 44.6°F7.0°C 38.5°F3.6°C 79% 9.6 mph N15.4 kmh N 15.6 mph25.1 kmh 29.84 in1010.5 mb 0.00 in0.0 mm 0.00 in0.0 mm 0.00 in0.0 mm
03:20 PM 44.4°F6.9°C 38.1°F3.4°C 78% 8.8 mph 14.2 kmh 14.6 mph23.5 kmh 29.85 in1010.8 mb 0.00 in0.0 mm 0.00 in0.0 mm 0.00 in0.0 mm
03:50 PM 43.5°F6.4°C 38.5°F3.6°C 82% 5.1 mph N8.2 kmh N 15.9 mph25.6 kmh 29.86 in1011.2 mb 0.00 in0.0 mm 0.00 in0.0 mm 0.00 in0.0 mm
04:20 PM 42.4°F5.8°C 38.8°F3.8°C 87% 2.4 mph N3.9 kmh N 7.5 mph12.1 kmh 29.87 in1011.5 mb 0.00 in0.0 mm 0.00 in0.0 mm 0.00 in0.0 mm
04:50 PM 38.8°F3.8°C 36.6°F2.6°C 91% Calm Calm -- 29.89 in1012.2 mb 0.00 in0.0 mm 0.00 in0.0 mm 0.00 in0.0 mm
05:20 PM 36.1°F2.3°C 35.4°F1.9°C 97% Calm Calm -- 29.89 in1012.2 mb 0.00 in0.0 mm 0.00 in0.0 mm 0.00 in0.0 mm
05:50 PM 34.5°F1.4°C 34.5°F1.4°C 100% Calm Calm -- 29.90 in1012.5 mb 0.00 in0.0 mm 0.00 in0.0 mm 0.00 in0.0 mm
06:20 PM 33.8°F1.0°C 33.8°F1.0°C 100% Calm Calm -- 29.90 in1012.5 mb 0.00 in0.0 mm 0.00 in0.0 mm 0.00 in0.0 mm
06:50 PM 33.0°F0.6°C 33.0°F0.6°C 100% Calm Calm -- 29.90 in1012.5 mb 0.00 in0.0 mm 0.00 in0.0 mm 0.00 in0.0 mm
07:20 PM 32.9°F0.5°C 32.9°F0.5°C 100% Calm Calm -- 29.91 in1012.9 mb 0.00 in0.0 mm 0.00 in0.0 mm 0.00 in0.0 mm
07:50 PM 35.6°F2.0°C 35.6°F2.0°C 100% 1.6 mph N2.6 kmh N 2.5 mph4.0 kmh 29.93 in1013.5 mb 0.00 in0.0 mm 0.00 in0.0 mm 0.00 in0.0 mm
08:20 PM 38.3°F3.5°C 38.3°F3.5°C 100% 2.8 mph 4.5 kmh 5.0 mph8.0 kmh 29.94 in1013.9 mb 0.00 in0.0 mm 0.00 in0.0 mm 0.00 in0.0 mm
08:50 PM 38.6°F3.7°C 38.6°F3.7°C 100% 3.5 mph 5.6 kmh 6.2 mph10.0 kmh 29.94 in1013.9 mb 0.00 in0.0 mm 0.00 in0.0 mm 0.00 in0.0 mm
09:20 PM 38.1°F3.4°C 38.0°F3.3°C 99% Calm Calm 2.5 mph4.0 kmh 29.96 in1014.6 mb 0.00 in0.0 mm 0.00 in0.0 mm 0.00 in0.0 mm
09:50 PM 37.4°F3.0°C 37.4°F3.0°C 100% Calm Calm 0.3 mph0.5 kmh 29.96 in1014.6 mb 0.00 in0.0 mm 0.00 in0.0 mm 0.00 in0.0 mm
10:20 PM 35.6°F2.0°C 35.6°F2.0°C 100% Calm Calm 1.5 mph2.4 kmh 29.97 in1014.9 mb 0.00 in0.0 mm 0.00 in0.0 mm 0.00 in0.0 mm
10:50 PM 34.5°F1.4°C 34.5°F1.4°C 100% Calm Calm -- 29.98 in1015.2 mb 0.00 in0.0 mm 0.00 in0.0 mm 0.00 in0.0 mm
11:20 PM 33.8°F1.0°C 33.8°F1.0°C 100% Calm Calm 0.9 mph1.4 kmh 29.97 in1014.9 mb 0.00 in0.0 mm 0.00 in0.0 mm 0.00 in0.0 mm
11:50 PM 33.2°F0.7°C 33.2°F0.7°C 100% Calm Calm 0.9 mph1.4 kmh 29.97 in1014.9 mb 0.00 in0.0 mm 0.00 in0.0 mm 0.00 in0.0 mm